createdAt,value
2019-03-21T00:01:48.360Z,99609.00
2019-03-21T00:05:49.229Z,99613.00
2019-03-21T00:10:10.852Z,99614.00
2019-03-21T00:14:15.550Z,99621.00
2019-03-21T00:18:16.406Z,99615.00
2019-03-21T00:22:17.285Z,99614.00
2019-03-21T00:26:19.342Z,99623.00
2019-03-21T00:30:22.235Z,99619.00
2019-03-21T00:34:23.194Z,99623.00
2019-03-21T00:38:24.160Z,99622.00
2019-03-21T00:42:25.123Z,99608.00
2019-03-21T00:46:26.095Z,99610.00
2019-03-21T00:50:28.663Z,99611.00
2019-03-21T00:54:29.515Z,99614.00
2019-03-21T00:58:30.395Z,99614.00
2019-03-21T01:02:31.370Z,99614.00
2019-03-21T01:06:32.357Z,99612.00
2019-03-21T01:10:33.183Z,99607.00
2019-03-21T01:14:34.073Z,99606.00
2019-03-21T01:18:38.329Z,99601.00
2019-03-21T01:22:39.271Z,99607.00
2019-03-21T01:26:40.265Z,99598.00
2019-03-21T01:30:41.187Z,99596.00
2019-03-21T01:34:42.090Z,99596.00
2019-03-21T01:38:42.987Z,99591.00
2019-03-21T01:42:43.889Z,99602.00
2019-03-21T01:46:44.877Z,99589.00
2019-03-21T01:50:45.868Z,99598.00
2019-03-21T01:54:46.744Z,99594.00
2019-03-21T01:58:47.732Z,99587.00
2019-03-21T02:02:50.716Z,99593.00
2019-03-21T02:06:51.573Z,99594.00
2019-03-21T02:10:52.458Z,99589.00
2019-03-21T02:14:53.340Z,99589.00
2019-03-21T02:18:54.210Z,99587.00
2019-03-21T02:22:55.067Z,99587.00
2019-03-21T02:26:55.937Z,99577.00
2019-03-21T02:30:56.845Z,99598.00
2019-03-21T02:34:57.814Z,99586.00
2019-03-21T02:38:58.794Z,99582.00
2019-03-21T02:42:59.843Z,99580.00
2019-03-21T02:47:00.744Z,99577.00
2019-03-21T02:51:01.614Z,99576.00
2019-03-21T02:55:04.634Z,99577.00
2019-03-21T02:59:05.663Z,99591.00
2019-03-21T03:03:06.949Z,99586.00
2019-03-21T03:07:07.834Z,99581.00
2019-03-21T03:11:17.555Z,99575.00
2019-03-21T03:15:23.582Z,99574.00
2019-03-21T03:19:24.647Z,99577.00
2019-03-21T03:23:27.871Z,99582.00
2019-03-21T03:27:28.760Z,99574.00
2019-03-21T03:31:29.617Z,99570.00
2019-03-21T03:35:30.545Z,99570.00
2019-03-21T03:39:31.488Z,99573.00
2019-03-21T03:43:32.484Z,99569.00
2019-03-21T03:47:33.451Z,99573.00
2019-03-21T03:51:34.331Z,99573.00
2019-03-21T03:55:35.478Z,99577.00
2019-03-21T03:59:36.358Z,99581.00
2019-03-21T04:03:37.332Z,99588.00
2019-03-21T04:07:39.449Z,99579.00
2019-03-21T04:11:40.530Z,99587.00
2019-03-21T04:15:52.585Z,99597.00
2019-03-21T04:19:44.290Z,99597.00
2019-03-21T04:23:45.249Z,99593.00
2019-03-21T04:27:46.163Z,99595.00
2019-03-21T04:31:47.058Z,99590.00
2019-03-21T04:35:47.958Z,99597.00
2019-03-21T04:39:48.819Z,99594.00
2019-03-21T04:43:49.679Z,99592.00
2019-03-21T04:47:50.591Z,99595.00
2019-03-21T04:51:51.547Z,99597.00
2019-03-21T04:55:52.422Z,99599.00
2019-03-21T04:59:53.295Z,99591.00
2019-03-21T05:03:54.268Z,99594.00
2019-03-21T05:07:55.378Z,99590.00
2019-03-21T05:11:56.309Z,99600.00
2019-03-21T05:15:57.228Z,99598.00
2019-03-21T05:19:58.103Z,99589.00
2019-03-21T05:23:58.998Z,99587.00
2019-03-21T05:27:59.971Z,99587.00
2019-03-21T05:32:03.583Z,99591.00
2019-03-21T05:36:03.856Z,99592.00
2019-03-21T05:40:13.422Z,99595.00
2019-03-21T05:44:18.127Z,99598.00
2019-03-21T05:48:18.998Z,99604.00
2019-03-21T05:52:20.003Z,99597.00
2019-03-21T05:56:20.901Z,99606.00
2019-03-21T06:00:28.642Z,99619.00
2019-03-21T06:04:29.536Z,99604.00
2019-03-21T06:08:33.556Z,99608.00
2019-03-21T06:12:44.273Z,99610.00
2019-03-21T06:16:45.157Z,99614.00
2019-03-21T06:20:59.246Z,99613.00
2019-03-21T06:25:07.023Z,99620.00
2019-03-21T06:29:08.011Z,99621.00
2019-03-21T06:33:09.108Z,99628.00
2019-03-21T06:37:10.021Z,99625.00
2019-03-21T06:41:11.027Z,99622.00
2019-03-21T06:45:11.957Z,99624.00
2019-03-21T06:49:12.968Z,99632.00
2019-03-21T06:53:13.937Z,99635.00
2019-03-21T06:57:17.052Z,99643.00
2019-03-21T07:01:17.939Z,99647.00
2019-03-21T07:05:18.953Z,99636.00
2019-03-21T07:09:19.848Z,99640.00
2019-03-21T07:13:20.737Z,99643.00
2019-03-21T07:17:23.011Z,99646.00
2019-03-21T07:21:24.173Z,99643.00
2019-03-21T07:25:25.099Z,99649.00
2019-03-21T07:29:26.177Z,99651.00
2019-03-21T07:33:27.068Z,99650.00
2019-03-21T07:37:28.141Z,99662.00
2019-03-21T07:41:29.120Z,99650.00
2019-03-21T07:45:30.033Z,99655.00
2019-03-21T07:49:32.775Z,99652.00
2019-03-21T07:53:34.062Z,99661.00
2019-03-21T07:57:36.239Z,99656.00
2019-03-21T08:01:37.208Z,99650.00
2019-03-21T08:05:40.632Z,99656.00
2019-03-21T08:09:41.571Z,99659.00
2019-03-21T08:13:42.461Z,99661.00
2019-03-21T08:17:43.588Z,99663.00
2019-03-21T08:21:44.542Z,99655.00
2019-03-21T08:25:45.627Z,99652.00
2019-03-21T08:29:46.536Z,99658.00
2019-03-21T08:33:47.511Z,99665.00
2019-03-21T08:37:50.612Z,99670.00
2019-03-21T08:41:51.777Z,99659.00
2019-03-21T08:45:52.676Z,99660.00
2019-03-21T08:49:53.666Z,99658.00
2019-03-21T08:53:54.527Z,99657.00
2019-03-21T08:57:55.390Z,99663.00
2019-03-21T09:01:56.282Z,99655.00
2019-03-21T09:05:57.297Z,99663.00
2019-03-21T09:09:58.252Z,99655.00
2019-03-21T09:13:59.385Z,99657.00
2019-03-21T09:18:02.176Z,99653.00
2019-03-21T09:22:03.357Z,99652.00
2019-03-21T09:26:04.284Z,99654.00
2019-03-21T09:30:11.805Z,99651.00
2019-03-21T09:34:12.695Z,99659.00
2019-03-21T09:38:13.644Z,99647.00
2019-03-21T09:42:14.928Z,99655.00
2019-03-21T09:46:15.905Z,99651.00
2019-03-21T09:50:25.572Z,99652.00
2019-03-21T09:54:26.471Z,99657.00
2019-03-21T09:58:27.846Z,99651.00
2019-03-21T10:02:29.826Z,99643.00
2019-03-21T10:06:30.846Z,99638.00
2019-03-21T10:10:32.741Z,99641.00
2019-03-21T10:14:33.630Z,99646.00
2019-03-21T10:18:34.496Z,99654.00
2019-03-21T10:22:35.502Z,99651.00
2019-03-21T10:26:36.576Z,99647.00
2019-03-21T10:30:39.266Z,99654.00
2019-03-21T10:34:40.136Z,99652.00
2019-03-21T10:38:41.025Z,99652.00
2019-03-21T10:42:41.928Z,99657.00
2019-03-21T10:46:42.856Z,99653.00
2019-03-21T10:50:43.952Z,99648.00
2019-03-21T10:54:44.982Z,99644.00
2019-03-21T10:58:45.984Z,99638.00
2019-03-21T11:02:47.079Z,99647.00
2019-03-21T11:06:50.370Z,99643.00
2019-03-21T11:10:51.337Z,99632.00
2019-03-21T11:14:52.230Z,99637.00
2019-03-21T11:18:53.209Z,99627.00
2019-03-21T11:22:55.822Z,99641.00
2019-03-21T11:26:57.023Z,99622.00
2019-03-21T11:30:58.054Z,99625.00
2019-03-21T11:34:59.019Z,99620.00
2019-03-21T11:39:00.028Z,99615.00
2019-03-21T11:43:01.947Z,99614.00
2019-03-21T11:47:02.928Z,99603.00
2019-03-21T11:51:03.912Z,99594.00
2019-03-21T11:55:06.266Z,99597.00
2019-03-21T11:59:07.148Z,99586.00
2019-03-21T12:03:08.365Z,99590.00
2019-03-21T12:07:09.215Z,99583.00
2019-03-21T12:11:10.223Z,99572.00
2019-03-21T12:15:11.737Z,99577.00
2019-03-21T12:19:12.706Z,99569.00
2019-03-21T12:23:13.592Z,99557.00
2019-03-21T12:27:14.464Z,99553.00
2019-03-21T12:31:15.440Z,99544.00
2019-03-21T12:35:16.408Z,99542.00
2019-03-21T12:39:17.334Z,99537.00
2019-03-21T12:43:18.227Z,99537.00
2019-03-21T12:47:30.617Z,99529.00
2019-03-21T12:51:21.971Z,99532.00
2019-03-21T12:55:22.871Z,99527.00
2019-03-21T12:59:23.828Z,99525.00
2019-03-21T13:03:24.680Z,99521.00
2019-03-21T13:07:25.731Z,99527.00
2019-03-21T13:11:26.703Z,99516.00
2019-03-21T13:15:30.162Z,99515.00
2019-03-21T13:19:30.490Z,99516.00
2019-03-21T13:23:31.409Z,99514.00
2019-03-21T13:27:32.290Z,99512.00
2019-03-21T13:31:33.233Z,99511.00
2019-03-21T13:35:34.214Z,99505.00
2019-03-21T13:39:35.120Z,99509.00
2019-03-21T13:43:36.018Z,99507.00
2019-03-21T13:47:36.910Z,99490.00
2019-03-21T13:51:37.784Z,99493.00
2019-03-21T13:55:38.697Z,99497.00
2019-03-21T13:59:39.650Z,99494.00
2019-03-21T14:03:40.690Z,99485.00
2019-03-21T14:07:41.789Z,99483.00
2019-03-21T14:11:42.685Z,99477.00
2019-03-21T14:15:43.688Z,99468.00
2019-03-21T14:19:44.570Z,99460.00
2019-03-21T14:23:45.999Z,99458.00
2019-03-21T14:27:46.904Z,99460.00
2019-03-21T14:31:47.869Z,99445.00
2019-03-21T14:35:48.768Z,99440.00
2019-03-21T14:39:49.676Z,99442.00
2019-03-21T14:43:50.788Z,99440.00
2019-03-21T14:47:51.679Z,99446.00
2019-03-21T14:51:52.577Z,99442.00
2019-03-21T14:55:53.484Z,99437.00
2019-03-21T14:59:54.354Z,99435.00
2019-03-21T15:03:55.444Z,99431.00
2019-03-21T15:07:56.387Z,99424.00
2019-03-21T15:11:57.493Z,99414.00
2019-03-21T15:15:58.580Z,99421.00
2019-03-21T15:19:59.542Z,99421.00
2019-03-21T15:24:00.621Z,99418.00
2019-03-21T15:28:01.480Z,99423.00
2019-03-21T15:32:02.527Z,99415.00
2019-03-21T15:36:03.720Z,99414.00
2019-03-21T15:40:08.144Z,99415.00
2019-03-21T15:44:09.208Z,99401.00
2019-03-21T15:48:10.156Z,99400.00
2019-03-21T15:52:12.419Z,99407.00
2019-03-21T15:56:13.386Z,99405.00
2019-03-21T16:00:18.261Z,99407.00
2019-03-21T16:04:19.657Z,99409.00
2019-03-21T16:08:20.611Z,99398.00
2019-03-21T16:12:21.554Z,99400.00
2019-03-21T16:16:23.087Z,99394.00
2019-03-21T16:20:24.009Z,99397.00
2019-03-21T16:24:25.193Z,99387.00
2019-03-21T16:28:26.120Z,99380.00
2019-03-21T16:32:27.101Z,99381.00
2019-03-21T16:36:28.013Z,99384.00
2019-03-21T16:40:28.886Z,99385.00
2019-03-21T16:44:29.753Z,99371.00
2019-03-21T16:48:30.767Z,99379.00
2019-03-21T16:52:31.757Z,99381.00
2019-03-21T16:56:32.771Z,99376.00
2019-03-21T17:00:33.819Z,99382.00
2019-03-21T17:04:34.850Z,99376.00
2019-03-21T17:08:35.852Z,99381.00
2019-03-21T17:12:37.038Z,99383.00
2019-03-21T17:16:38.119Z,99385.00
2019-03-21T17:20:39.353Z,99389.00
2019-03-21T17:24:40.363Z,99383.00
2019-03-21T17:28:41.356Z,99377.00
2019-03-21T17:32:42.337Z,99397.00
2019-03-21T17:36:43.428Z,99392.00
2019-03-21T17:40:44.645Z,99401.00
2019-03-21T17:44:45.986Z,99398.00
2019-03-21T17:48:46.993Z,99400.00
2019-03-21T17:52:47.898Z,99399.00
2019-03-21T17:56:48.961Z,99414.00
2019-03-21T18:00:49.986Z,99420.00
2019-03-21T18:04:50.993Z,99419.00
2019-03-21T18:08:52.216Z,99419.00
2019-03-21T18:12:53.186Z,99419.00
2019-03-21T18:16:54.190Z,99424.00
2019-03-21T18:20:55.206Z,99429.00
2019-03-21T18:24:56.100Z,99428.00
2019-03-21T18:28:56.988Z,99426.00
2019-03-21T18:32:58.293Z,99425.00
2019-03-21T18:36:59.273Z,99432.00
2019-03-21T18:41:00.415Z,99436.00
2019-03-21T18:45:01.652Z,99446.00
2019-03-21T18:49:02.792Z,99434.00
2019-03-21T18:53:04.362Z,99441.00
2019-03-21T18:57:05.348Z,99437.00
2019-03-21T19:01:06.353Z,99440.00
2019-03-21T19:05:07.580Z,99434.00
2019-03-21T19:09:08.517Z,99436.00
2019-03-21T19:13:09.510Z,99428.00
2019-03-21T19:17:10.500Z,99437.00
2019-03-21T19:21:11.758Z,99431.00
2019-03-21T19:25:18.579Z,99425.00
2019-03-21T19:29:16.206Z,99419.00
2019-03-21T19:33:18.413Z,99443.00
2019-03-21T19:37:19.702Z,99430.00
2019-03-21T19:41:20.631Z,99429.00
2019-03-21T19:45:21.647Z,99432.00
2019-03-21T19:49:22.843Z,99436.00
2019-03-21T19:53:24.246Z,99429.00
2019-03-21T19:57:25.312Z,99431.00
2019-03-21T20:01:26.346Z,99438.00
2019-03-21T20:05:27.222Z,99436.00
2019-03-21T20:09:28.336Z,99436.00
2019-03-21T20:13:29.369Z,99442.00
2019-03-21T20:17:30.365Z,99441.00
2019-03-21T20:21:31.314Z,99440.00
2019-03-21T20:25:42.208Z,99437.00
2019-03-21T20:29:35.029Z,99449.00
2019-03-21T20:33:37.270Z,99444.00
2019-03-21T20:37:39.546Z,99440.00
2019-03-21T20:41:40.439Z,99435.00
2019-03-21T20:45:41.516Z,99440.00
2019-03-21T20:49:42.460Z,99441.00
2019-03-21T20:53:43.499Z,99444.00
2019-03-21T20:57:44.456Z,99437.00
2019-03-21T21:01:45.521Z,99444.00
2019-03-21T21:05:46.495Z,99436.00
2019-03-21T21:09:51.100Z,99439.00
2019-03-21T21:13:52.089Z,99432.00
2019-03-21T21:17:52.985Z,99432.00
2019-03-21T21:21:56.375Z,99425.00
2019-03-21T21:26:05.428Z,99426.00
2019-03-21T21:30:04.964Z,99422.00
2019-03-21T21:34:05.979Z,99410.00
2019-03-21T21:38:06.906Z,99411.00
2019-03-21T21:42:08.060Z,99416.00
2019-03-21T21:46:08.915Z,99413.00
2019-03-21T21:50:12.438Z,99417.00
2019-03-21T21:54:13.444Z,99428.00
2019-03-21T21:58:14.470Z,99419.00
2019-03-21T22:02:15.669Z,99416.00
2019-03-21T22:06:16.545Z,99417.00
2019-03-21T22:10:17.650Z,99416.00
2019-03-21T22:14:18.535Z,99411.00
2019-03-21T22:18:19.515Z,99417.00
2019-03-21T22:22:20.480Z,99414.00
2019-03-21T22:26:29.669Z,99411.00
2019-03-21T22:30:24.410Z,99404.00
2019-03-21T22:34:25.422Z,99403.00
2019-03-21T22:38:28.239Z,99410.00
2019-03-21T22:42:30.229Z,99403.00
2019-03-21T22:46:31.264Z,99405.00
2019-03-21T22:50:33.495Z,99397.00
2019-03-21T22:54:35.192Z,99394.00
2019-03-21T22:58:36.630Z,99396.00
2019-03-21T23:02:37.762Z,99393.00
2019-03-21T23:06:38.729Z,99387.00
2019-03-21T23:10:41.685Z,99384.00
2019-03-21T23:14:42.711Z,99390.00
2019-03-21T23:18:43.680Z,99384.00
2019-03-21T23:22:44.700Z,99389.00
2019-03-21T23:26:52.913Z,99395.00
2019-03-21T23:30:48.368Z,99388.00
2019-03-21T23:34:49.270Z,99389.00
2019-03-21T23:38:50.230Z,99385.00
2019-03-21T23:42:51.110Z,99385.00
2019-03-21T23:46:52.112Z,99387.00
2019-03-21T23:50:53.014Z,99375.00
2019-03-21T23:54:54.028Z,99374.00
2019-03-21T23:58:54.926Z,99374.00
